^^
Grace C. Lehan Memorial Weather Station Historical Data
Daily Summary for February 24, 2022 Units:  Both    English   Metric
Daily Weekly Monthly Yearly
  High: Low: Average:
Temperature: 51.4 °F /  10.8 °C 28.7 °F /  -1.8 °C 40.1 °F /  4.5 °C
Dew Point: 39.1 °F /  3.9 °C 25.9 °F /  -3.4 °C 32.7 °F /  0.4 °C
Humidity: 92% 54.7% 76%
Wind Speed: 2.3mph /  3.7km/h - 0.1mph /  0.2km/h
Wind Gust: 10mph /  16.1km/h - -
Wind- - WSW
Pressure: 30.41 in /  1029.7 hPa 30.13 in /  1020.2 hPa -
Precipitation: 0.00 in /  0 mm    
 
 
Tabular Data for February 24, 2022
Time Temperature Dew Point Pressure Wind Wind Speed Wind Gust Humidity Rainfall Rate (Hourly) solar
00:04 37.3 °F /  2.9 °C 28.8 °F /  -1.8 °C 30.33in /  1027hPa Calm     71% 0.00in /  0mm 0 W/m2
00:09 37.1 °F /  2.8 °C 28.7 °F /  -1.8 °C 30.33in /  1027hPa Calm     71.5% 0.00in /  0mm 0 W/m2
00:14 36.9 °F /  2.7 °C 28.7 °F /  -1.8 °C 30.33in /  1027hPa Calm     72% 0.00in /  0mm 0 W/m2
00:19 36.7 °F /  2.6 °C 28.7 °F /  -1.8 °C 30.33in /  1027hPa Calm     72.3% 0.00in /  0mm 0 W/m2
00:24 36.6 °F /  2.6 °C 28.8 °F /  -1.8 °C 30.33in /  1027hPa Calm     73.1% 0.00in /  0mm 0 W/m2
00:29 36.4 °F /  2.4 °C 28.7 °F /  -1.8 °C 30.33in /  1027hPa Calm     73.3% 0.00in /  0mm 0 W/m2
00:34 36.3 °F /  2.4 °C 28.6 °F /  -1.9 °C 30.33in /  1027hPa Calm     73.5% 0.00in /  0mm 0 W/m2
00:39 36.1 °F /  2.3 °C 28.7 °F /  -1.8 °C 30.33in /  1027hPa Calm     74% 0.00in /  0mm 0 W/m2
00:44 36.1 °F /  2.3 °C 28.6 °F /  -1.9 °C 30.33in /  1027hPa Calm     74% 0.00in /  0mm 0 W/m2
00:49 35.9 °F /  2.2 °C 28.6 °F /  -1.9 °C 30.33in /  1027hPa Calm     74.5% 0.00in /  0mm 0 W/m2
00:54 35.8 °F /  2.1 °C 28.7 °F /  -1.8 °C 30.33in /  1027hPa Calm     75% 0.00in /  0mm 0 W/m2
00:59 35.6 °F /  2 °C 28.4 °F /  -2 °C 30.33in /  1027hPa Calm     75% 0.00in /  0mm 0 W/m2
01:04 35.3 °F /  1.8 °C 28.1 °F /  -2.2 °C 30.33in /  1027hPa Calm     75% 0.00in /  0mm 0 W/m2
01:09 34.9 °F /  1.6 °C 28.1 °F /  -2.2 °C 30.33in /  1027hPa Calm     75.7% 0.00in /  0mm 0 W/m2
01:14 34.7 °F /  1.5 °C 27.9 °F /  -2.3 °C 30.34in /  1027.3hPa Calm     76% 0.00in /  0mm 0 W/m2
01:19 34.3 °F /  1.3 °C 27.9 °F /  -2.3 °C 30.34in /  1027.3hPa Calm     77% 0.00in /  0mm 0 W/m2
01:24 33.7 °F /  0.9 °C 27.4 °F /  -2.6 °C 30.35in /  1027.7hPa Calm     77.3% 0.00in /  0mm 0 W/m2
01:29 33.2 °F /  0.7 °C 27.2 °F /  -2.7 °C 30.35in /  1027.7hPa Calm     78.4% 0.00in /  0mm 0 W/m2
01:34 32.8 °F /  0.4 °C 27.3 °F /  -2.6 °C 30.35in /  1027.7hPa Calm     79.9% 0.00in /  0mm 0 W/m2
01:39 32.7 °F /  0.4 °C 27.5 °F /  -2.5 °C 30.35in /  1027.7hPa Calm     81% 0.00in /  0mm 0 W/m2
01:44 32.7 °F /  0.4 °C 27.6 °F /  -2.4 °C 30.35in /  1027.7hPa Calm     81.5% 0.00in /  0mm 0 W/m2
01:49 32.7 °F /  0.4 °C 27.8 °F /  -2.3 °C 30.35in /  1027.7hPa Calm     82% 0.00in /  0mm 0 W/m2
01:54 32.8 °F /  0.4 °C 27.9 °F /  -2.3 °C 30.36in /  1028hPa Calm     82% 0.00in /  0mm 0 W/m2
01:59 32.9 °F /  0.5 °C 28 °F /  -2.2 °C 30.36in /  1028hPa Calm     82% 0.00in /  0mm 0 W/m2
02:04 32.9 °F /  0.5 °C 28 °F /  -2.2 °C 30.36in /  1028hPa Calm     82% 0.00in /  0mm 0 W/m2
02:09 33 °F /  0.6 °C 28.1 °F /  -2.2 °C 30.36in /  1028hPa Calm     82% 0.00in /  0mm 0 W/m2
02:14 33 °F /  0.6 °C 28.1 °F /  -2.2 °C 30.36in /  1028hPa Calm     82% 0.00in /  0mm 0 W/m2
02:19 32.9 °F /  0.5 °C 28 °F /  -2.2 °C 30.36in /  1028hPa Calm     82% 0.00in /  0mm 0 W/m2
02:24 32.9 °F /  0.5 °C 28 °F /  -2.2 °C 30.36in /  1028hPa Calm     82% 0.00in /  0mm 0 W/m2
02:29 32.8 °F /  0.4 °C 27.9 °F /  -2.3 °C 30.36in /  1028hPa Calm     82% 0.00in /  0mm 0 W/m2
02:34 32.7 °F /  0.4 °C 27.9 °F /  -2.3 °C 30.36in /  1028hPa Calm     82% 0.00in /  0mm 0 W/m2
02:39 32.6 °F /  0.3 °C 27.7 °F /  -2.4 °C 30.35in /  1027.7hPa Calm     82% 0.00in /  0mm 0 W/m2
02:44 32.5 °F /  0.3 °C 27.6 °F /  -2.4 °C 30.36in /  1028hPa Calm     82% 0.00in /  0mm 0 W/m2
02:49 32.3 °F /  0.2 °C 27.5 °F /  -2.5 °C 30.35in /  1027.7hPa Calm     82% 0.00in /  0mm 0 W/m2
02:54 32.2 °F /  0.1 °C 27.3 °F /  -2.6 °C 30.36in /  1028hPa Calm     82% 0.00in /  0mm 0 W/m2
02:59 32.1 °F /  0.1 °C 27.2 °F /  -2.7 °C 30.36in /  1028hPa Calm     82% 0.00in /  0mm 0 W/m2
03:04 31.9 °F /  -0.1 °C 27.4 °F /  -2.6 °C 30.35in /  1027.7hPa Calm     83% 0.00in /  0mm 0 W/m2
03:09 31.8 °F /  -0.1 °C 27.2 °F /  -2.7 °C 30.36in /  1028hPa Calm     83% 0.00in /  0mm 0 W/m2
03:14 31.6 °F /  -0.2 °C 27 °F /  -2.8 °C 30.36in /  1028hPa Calm     83% 0.00in /  0mm 0 W/m2
03:19 31.4 °F /  -0.3 °C 26.9 °F /  -2.8 °C 30.36in /  1028hPa Calm     83% 0.00in /  0mm 0 W/m2
03:24 31.4 °F /  -0.3 °C 27 °F /  -2.8 °C 30.36in /  1028hPa Calm     83.5% 0.00in /  0mm 0 W/m2
03:29 31.4 °F /  -0.3 °C 27.1 °F /  -2.7 °C 30.37in /  1028.3hPa Calm     84% 0.00in /  0mm 0 W/m2
03:34 31.4 °F /  -0.3 °C 27.2 °F /  -2.7 °C 30.37in /  1028.3hPa Calm     84.2% 0.00in /  0mm 0 W/m2
03:39 31.4 °F /  -0.3 °C 27.5 °F /  -2.5 °C 30.37in /  1028.3hPa Calm     85% 0.00in /  0mm 0 W/m2
03:44 31.5 °F /  -0.3 °C 27.5 °F /  -2.5 °C 30.37in /  1028.3hPa Calm     85% 0.00in /  0mm 0 W/m2
03:49 31.5 °F /  -0.3 °C 27.5 °F /  -2.5 °C 30.37in /  1028.3hPa Calm     85% 0.00in /  0mm 0 W/m2
03:54 31.5 °F /  -0.3 °C 27.5 °F /  -2.5 °C 30.37in /  1028.3hPa Calm     85% 0.00in /  0mm 0 W/m2
03:59 31.5 °F /  -0.3 °C 27.5 °F /  -2.5 °C 30.37in /  1028.3hPa Calm     85% 0.00in /  0mm 0 W/m2
04:00 31.4 °F /  -0.3 °C 27.4 °F /  -2.6 °C 30.37in /  1028.3hPa Calm     85% 0.00in /  0mm 0 W/m2
04:09 31.1 °F /  -0.5 °C 27.1 °F /  -2.7 °C 30.37in /  1028.3hPa Calm     85% 0.00in /  0mm 0 W/m2
04:14 31 °F /  -0.6 °C 27.1 °F /  -2.7 °C 30.37in /  1028.3hPa Calm     85% 0.00in /  0mm 0 W/m2
04:19 30.9 °F /  -0.6 °C 26.9 °F /  -2.8 °C 30.38in /  1028.7hPa Calm     85% 0.00in /  0mm 0 W/m2
04:24 30.7 °F /  -0.7 °C 26.8 °F /  -2.9 °C 30.38in /  1028.7hPa Calm     85% 0.00in /  0mm 0 W/m2
04:29 30.6 °F /  -0.8 °C 26.6 °F /  -3 °C 30.38in /  1028.7hPa Calm     85% 0.00in /  0mm 0 W/m2
04:34 30.5 °F /  -0.8 °C 26.5 °F /  -3.1 °C 30.38in /  1028.7hPa Calm     85% 0.00in /  0mm 0 W/m2
04:39 30.4 °F /  -0.9 °C 26.4 °F /  -3.1 °C 30.38in /  1028.7hPa Calm     85.1% 0.00in /  0mm 0 W/m2
04:44 30.3 °F /  -0.9 °C 26.6 °F /  -3 °C 30.38in /  1028.7hPa Calm     86% 0.00in /  0mm 0 W/m2
04:49 30.2 °F /  -1 °C 26.7 °F /  -2.9 °C 30.38in /  1028.7hPa Calm     86.8% 0.00in /  0mm 0 W/m2
04:54 30.1 °F /  -1.1 °C 26.5 °F /  -3.1 °C 30.38in /  1028.7hPa Calm     86% 0.00in /  0mm 0 W/m2
04:59 30.1 °F /  -1.1 °C 26.5 °F /  -3.1 °C 30.38in /  1028.7hPa Calm     86.1% 0.00in /  0mm 0 W/m2
05:04 30.1 °F /  -1.1 °C 26.7 °F /  -2.9 °C 30.38in /  1028.7hPa Calm     87% 0.00in /  0mm 0 W/m2
05:09 30.1 °F /  -1.1 °C 26.7 °F /  -2.9 °C 30.38in /  1028.7hPa Calm     87% 0.00in /  0mm 0 W/m2
05:14 30.1 °F /  -1.1 °C 26.7 °F /  -2.9 °C 30.38in /  1028.7hPa Calm     87% 0.00in /  0mm 0 W/m2
05:19 30 °F /  -1.1 °C 26.6 °F /  -3 °C 30.38in /  1028.7hPa Calm     87% 0.00in /  0mm 0 W/m2
05:24 30 °F /  -1.1 °C 26.6 °F /  -3 °C 30.38in /  1028.7hPa Calm     87% 0.00in /  0mm 0 W/m2
05:29 29.9 °F /  -1.2 °C 26.5 °F /  -3.1 °C 30.38in /  1028.7hPa Calm     87% 0.00in /  0mm 0 W/m2
05:34 29.8 °F /  -1.2 °C 26.4 °F /  -3.1 °C 30.39in /  1029hPa Calm     87% 0.00in /  0mm 0 W/m2
05:39 29.8 °F /  -1.2 °C 26.4 °F /  -3.1 °C 30.39in /  1029hPa Calm     87% 0.00in /  0mm 0 W/m2
05:44 29.7 °F /  -1.3 °C 26.5 °F /  -3.1 °C 30.39in /  1029hPa Calm     87.7% 0.00in /  0mm 0 W/m2
05:49 29.7 °F /  -1.3 °C 26.6 °F /  -3 °C 30.39in /  1029hPa Calm     88% 0.00in /  0mm 0 W/m2
05:54 29.6 °F /  -1.3 °C 26.5 °F /  -3.1 °C 30.39in /  1029hPa Calm     88% 0.00in /  0mm 0 W/m2
05:59 29.6 °F /  -1.3 °C 26.5 °F /  -3.1 °C 30.40in /  1029.3hPa Calm     88% 0.00in /  0mm 0 W/m2
06:04 29.6 °F /  -1.3 °C 26.5 °F /  -3.1 °C 30.40in /  1029.3hPa Calm     88% 0.00in /  0mm 0 W/m2
06:09 29.5 °F /  -1.4 °C 26.4 °F /  -3.1 °C 30.40in /  1029.3hPa Calm     88% 0.00in /  0mm 0 W/m2
06:14 29.4 °F /  -1.4 °C 26.3 °F /  -3.2 °C 30.40in /  1029.3hPa Calm     88% 0.00in /  0mm 0 W/m2
06:19 29.3 °F /  -1.5 °C 26.2 °F /  -3.2 °C 30.40in /  1029.3hPa Calm     88% 0.00in /  0mm 0 W/m2
06:24 29.2 °F /  -1.6 °C 26.1 °F /  -3.3 °C 30.40in /  1029.3hPa Calm     88% 0.00in /  0mm 0 W/m2
06:29 29.2 °F /  -1.6 °C 26.1 °F /  -3.3 °C 30.40in /  1029.3hPa Calm     88% 0.00in /  0mm 0 W/m2
06:34 29.1 °F /  -1.6 °C 26 °F /  -3.3 °C 30.40in /  1029.3hPa Calm     88.1% 0.00in /  0mm 0 W/m2
06:39 29 °F /  -1.7 °C 26.2 °F /  -3.2 °C 30.40in /  1029.3hPa Calm     89% 0.00in /  0mm 0 W/m2
06:44 28.9 °F /  -1.7 °C 26.1 °F /  -3.3 °C 30.40in /  1029.3hPa Calm     89% 0.00in /  0mm 0 W/m2
06:49 28.9 °F /  -1.7 °C 26.1 °F /  -3.3 °C 30.40in /  1029.3hPa Calm     89% 0.00in /  0mm 0 W/m2
06:54 28.8 °F /  -1.8 °C 26 °F /  -3.3 °C 30.41in /  1029.7hPa Calm     89% 0.00in /  0mm 5 W/m2
06:59 28.8 °F /  -1.8 °C 26 °F /  -3.3 °C 30.41in /  1029.7hPa Calm     89% 0.00in /  0mm 9 W/m2
07:04 28.8 °F /  -1.8 °C 26 °F /  -3.3 °C 30.41in /  1029.7hPa Calm     89% 0.00in /  0mm 11 W/m2
07:09 28.8 °F /  -1.8 °C 26 °F /  -3.3 °C 30.41in /  1029.7hPa Calm     89% 0.00in /  0mm 18 W/m2
07:14 28.7 °F /  -1.8 °C 25.9 °F /  -3.4 °C 30.41in /  1029.7hPa Calm     89% 0.00in /  0mm 21 W/m2
07:19 28.8 °F /  -1.8 °C 26 °F /  -3.3 °C 30.41in /  1029.7hPa Calm     89.2% 0.00in /  0mm 32 W/m2
07:24 28.8 °F /  -1.8 °C 26.3 °F /  -3.2 °C 30.41in /  1029.7hPa Calm     89.9% 0.00in /  0mm 58 W/m2
07:29 29.1 °F /  -1.6 °C 26.6 °F /  -3 °C 30.41in /  1029.7hPa Calm     90% 0.00in /  0mm 95 W/m2
07:34 29.7 °F /  -1.3 °C 27.4 °F /  -2.6 °C 30.41in /  1029.7hPa Calm     91% 0.00in /  0mm 113 W/m2
07:39 30.7 °F /  -0.7 °C 28.5 °F /  -1.9 °C 30.41in /  1029.7hPa Calm     91.5% 0.00in /  0mm 128 W/m2
07:44 31.7 °F /  -0.2 °C 29.6 °F /  -1.3 °C 30.41in /  1029.7hPa Calm     92% 0.00in /  0mm 146 W/m2
07:49 32.7 °F /  0.4 °C 30.5 °F /  -0.8 °C 30.41in /  1029.7hPa Calm     91.8% 0.00in /  0mm 146 W/m2
07:54 33.5 °F /  0.8 °C 31.2 °F /  -0.4 °C 30.41in /  1029.7hPa Calm     91% 0.00in /  0mm 153 W/m2
07:59 34.4 °F /  1.3 °C 31.8 °F /  -0.1 °C 30.41in /  1029.7hPa Calm     90% 0.00in /  0mm 127 W/m2
08:09 35.8 °F /  2.1 °C 32 °F /  0 °C 30.41in /  1029.7hPa Calm     86% 0.00in /  0mm 160 W/m2
08:14 36.1 °F /  2.3 °C 31.6 °F /  -0.2 °C 30.41in /  1029.7hPa Calm     83.4% 0.00in /  0mm 206 W/m2
08:19 36.4 °F /  2.4 °C 31.5 °F /  -0.3 °C 30.41in /  1029.7hPa Calm     82.1% 0.00in /  0mm 206 W/m2
08:24 36.6 °F /  2.6 °C 31.4 °F /  -0.3 °C 30.40in /  1029.3hPa Calm     81% 0.00in /  0mm 229 W/m2
08:29 37.1 °F /  2.8 °C 31.5 °F /  -0.3 °C 30.41in /  1029.7hPa Calm     80.3% 0.00in /  0mm 229 W/m2
08:34 37.4 °F /  3 °C 31.5 °F /  -0.3 °C 30.40in /  1029.3hPa Calm     78.9% 0.00in /  0mm 246 W/m2
08:39 37.8 °F /  3.2 °C 31.5 °F /  -0.3 °C 30.40in /  1029.3hPa Calm     78% 0.00in /  0mm 253 W/m2
08:44 38.1 °F /  3.4 °C 31.8 °F /  -0.1 °C 30.40in /  1029.3hPa Calm     78% 0.00in /  0mm 267 W/m2
08:49 38.4 °F /  3.6 °C 31.7 °F /  -0.2 °C 30.41in /  1029.7hPa Calm     76.7% 0.00in /  0mm 251 W/m2
08:54 38.7 °F /  3.7 °C 31.8 °F /  -0.1 °C 30.41in /  1029.7hPa Calm     76% 0.00in /  0mm 134 W/m2
08:59 38.7 °F /  3.7 °C 31.5 °F /  -0.3 °C 30.40in /  1029.3hPa Calm     75.1% 0.00in /  0mm 70 W/m2
09:04 38.6 °F /  3.7 °C 31.4 °F /  -0.3 °C 30.41in /  1029.7hPa Calm     75% 0.00in /  0mm 135 W/m2
09:09 38.5 °F /  3.6 °C 31.3 °F /  -0.4 °C 30.41in /  1029.7hPa Calm     75% 0.00in /  0mm 105 W/m2
09:14 38.6 °F /  3.7 °C 31.3 °F /  -0.4 °C 30.41in /  1029.7hPa Calm     75% 0.00in /  0mm 93 W/m2
09:19 38.7 °F /  3.7 °C 31.4 °F /  -0.3 °C 30.41in /  1029.7hPa Calm     74.8% 0.00in /  0mm 174 W/m2
09:24 38.9 °F /  3.8 °C 31.3 °F /  -0.4 °C 30.41in /  1029.7hPa Calm     74% 0.00in /  0mm 174 W/m2
09:29 39.2 °F /  4 °C 31.4 °F /  -0.3 °C 30.41in /  1029.7hPa Calm     73.3% 0.00in /  0mm 148 W/m2
09:34 39.4 °F /  4.1 °C 31 °F /  -0.6 °C 30.40in /  1029.3hPa Calm     71.6% 0.00in /  0mm 148 W/m2
09:39 39.6 °F /  4.2 °C 30.9 °F /  -0.6 °C 30.41in /  1029.7hPa Calm     71% 0.00in /  0mm 176 W/m2
09:44 39.8 °F /  4.3 °C 30.7 °F /  -0.7 °C 30.40in /  1029.3hPa Calm     69.7% 0.00in /  0mm 179 W/m2
09:49 40 °F /  4.4 °C 30.9 °F /  -0.6 °C 30.40in /  1029.3hPa Calm     69.8% 0.00in /  0mm 130 W/m2
09:54 40.2 °F /  4.6 °C 31.1 °F /  -0.5 °C 30.40in /  1029.3hPa NW 0.4mph /  0.6km/h 3mph /  4.8km/h 69.9% 0.00in /  0mm 193 W/m2
09:59 40.4 °F /  4.7 °C 31.2 °F /  -0.4 °C 30.40in /  1029.3hPa Calm   3mph /  4.8km/h 69.6% 0.00in /  0mm 325 W/m2
10:04 40.8 °F /  4.9 °C 31.8 °F /  -0.1 °C 30.40in /  1029.3hPa Calm   3mph /  4.8km/h 70% 0.00in /  0mm 366 W/m2
10:09 41.5 °F /  5.3 °C 32 °F /  0 °C 30.40in /  1029.3hPa Calm     68.7% 0.00in /  0mm 360 W/m2
10:14 42.1 °F /  5.6 °C 32.3 °F /  0.2 °C 30.40in /  1029.3hPa Calm     68% 0.00in /  0mm 418 W/m2
10:19 42.9 °F /  6.1 °C 32.7 °F /  0.4 °C 30.39in /  1029hPa Calm     67.2% 0.00in /  0mm 450 W/m2
10:24 43.6 °F /  6.4 °C 32.3 °F /  0.2 °C 30.39in /  1029hPa Calm     64.2% 0.00in /  0mm 454 W/m2
10:29 44 °F /  6.7 °C 31.8 °F /  -0.1 °C 30.39in /  1029hPa Calm     62% 0.00in /  0mm 457 W/m2
10:34 44.1 °F /  6.7 °C 32 °F /  0 °C 30.39in /  1029hPa Calm     62% 0.00in /  0mm 454 W/m2
10:39 44.4 °F /  6.9 °C 32.6 °F /  0.3 °C 30.38in /  1028.7hPa NW 0.2mph /  0.3km/h 2mph /  3.2km/h 63.1% 0.00in /  0mm 441 W/m2
10:44 44.8 °F /  7.1 °C 32.7 °F /  0.4 °C 30.38in /  1028.7hPa Calm   2mph /  3.2km/h 62.3% 0.00in /  0mm 160 W/m2
10:49 45 °F /  7.2 °C 32.8 °F /  0.4 °C 30.38in /  1028.7hPa NW 0.6mph /  1km/h 3mph /  4.8km/h 62% 0.00in /  0mm 283 W/m2
10:54 45.2 °F /  7.3 °C 32.6 °F /  0.3 °C 30.38in /  1028.7hPa Calm   3mph /  4.8km/h 61% 0.00in /  0mm 334 W/m2
10:59 45.2 °F /  7.3 °C 32.4 °F /  0.2 °C 30.38in /  1028.7hPa NW 0.1mph /  0.2km/h 3mph /  4.8km/h 60.5% 0.00in /  0mm 258 W/m2
11:04 45.1 °F /  7.3 °C 32.2 °F /  0.1 °C 30.37in /  1028.3hPa Calm   3mph /  4.8km/h 60.3% 0.00in /  0mm 213 W/m2
11:09 45.2 °F /  7.3 °C 32.6 °F /  0.3 °C 30.37in /  1028.3hPa Calm     61.1% 0.00in /  0mm 213 W/m2
11:14 45.1 °F /  7.3 °C 32.2 °F /  0.1 °C 30.36in /  1028hPa Calm     60.3% 0.00in /  0mm 243 W/m2
11:19 45.1 °F /  7.3 °C 32.2 °F /  0.1 °C 30.36in /  1028hPa NW 0.2mph /  0.3km/h 2mph /  3.2km/h 60.4% 0.00in /  0mm 209 W/m2
11:24 45.2 °F /  7.3 °C 32.7 °F /  0.4 °C 30.36in /  1028hPa NW 0.1mph /  0.2km/h 3mph /  4.8km/h 61.3% 0.00in /  0mm 325 W/m2
11:29 45.5 °F /  7.5 °C 32.7 °F /  0.4 °C 30.36in /  1028hPa NW 0.3mph /  0.5km/h 3mph /  4.8km/h 60.5% 0.00in /  0mm 86 W/m2
11:34 45.6 °F /  7.6 °C 32.5 °F /  0.3 °C 30.35in /  1027.7hPa Calm   3mph /  4.8km/h 60% 0.00in /  0mm 118 W/m2
11:39 45.7 °F /  7.6 °C 32.9 °F /  0.5 °C 30.36in /  1028hPa Calm     60.5% 0.00in /  0mm 91 W/m2
11:44 46.1 °F /  7.8 °C 33.1 °F /  0.6 °C 30.35in /  1027.7hPa NW 0.3mph /  0.5km/h 3mph /  4.8km/h 60.2% 0.00in /  0mm 123 W/m2
11:49 46.6 °F /  8.1 °C 33.3 °F /  0.7 °C 30.35in /  1027.7hPa NW 0.3mph /  0.5km/h 3mph /  4.8km/h 59.7% 0.00in /  0mm 149 W/m2
11:54 46.9 °F /  8.3 °C 33.1 °F /  0.6 °C 30.35in /  1027.7hPa NW 0.2mph /  0.3km/h 4mph /  6.4km/h 58.3% 0.00in /  0mm 113 W/m2
11:59 47 °F /  8.3 °C 33.3 °F /  0.7 °C 30.35in /  1027.7hPa NW 0.4mph /  0.6km/h 4mph /  6.4km/h 58.5% 0.00in /  0mm 424 W/m2
12:09 47.2 °F /  8.4 °C 33.2 °F /  0.7 °C 30.34in /  1027.3hPa NW 0.2mph /  0.3km/h 3mph /  4.8km/h 58% 0.00in /  0mm 230 W/m2
12:14 47.3 °F /  8.5 °C 33 °F /  0.6 °C 30.34in /  1027.3hPa NW 0.8mph /  1.3km/h 4mph /  6.4km/h 57.3% 0.00in /  0mm 118 W/m2
12:19 47.3 °F /  8.5 °C 32.9 °F /  0.5 °C 30.34in /  1027.3hPa WNW 0.5mph /  0.8km/h 4mph /  6.4km/h 57.1% 0.00in /  0mm 371 W/m2
12:24 47.4 °F /  8.6 °C 33.5 °F /  0.8 °C 30.34in /  1027.3hPa WNW 0.1mph /  0.2km/h 4mph /  6.4km/h 58.3% 0.00in /  0mm 343 W/m2
12:29 47.6 °F /  8.7 °C 33.2 °F /  0.7 °C 30.33in /  1027hPa WNW 0.5mph /  0.8km/h 4mph /  6.4km/h 57.3% 0.00in /  0mm 225 W/m2
12:34 47.8 °F /  8.8 °C 33.3 °F /  0.7 °C 30.33in /  1027hPa WNW 0.2mph /  0.3km/h 4mph /  6.4km/h 57% 0.00in /  0mm 77 W/m2
12:39 47.9 °F /  8.8 °C 33.4 °F /  0.8 °C 30.33in /  1027hPa WNW 0.1mph /  0.2km/h 3mph /  4.8km/h 57% 0.00in /  0mm 93 W/m2
12:44 48.2 °F /  9 °C 34 °F /  1.1 °C 30.32in /  1026.6hPa WNW 0.6mph /  1km/h 4mph /  6.4km/h 57.8% 0.00in /  0mm 65 W/m2
12:49 48.6 °F /  9.2 °C 34.1 °F /  1.2 °C 30.32in /  1026.6hPa West 2.3mph /  3.7km/h 10mph /  16.1km/h 57% 0.00in /  0mm 262 W/m2
12:54 48.9 °F /  9.4 °C 34 °F /  1.1 °C 30.32in /  1026.6hPa SW 0.9mph /  1.4km/h 10mph /  16.1km/h 56.1% 0.00in /  0mm 388 W/m2
12:59 49.1 °F /  9.5 °C 34 °F /  1.1 °C 30.32in /  1026.6hPa South 1.9mph /  3.1km/h 10mph /  16.1km/h 55.7% 0.00in /  0mm 401 W/m2
13:04 49.3 °F /  9.6 °C 33.8 °F /  1 °C 30.32in /  1026.6hPa South 1mph /  1.6km/h 10mph /  16.1km/h 55% 0.00in /  0mm 230 W/m2
13:09 49.4 °F /  9.7 °C 34.1 °F /  1.2 °C 30.31in /  1026.3hPa South 1.5mph /  2.4km/h 6mph /  9.7km/h 55.4% 0.00in /  0mm 318 W/m2
13:14 49.6 °F /  9.8 °C 34.1 °F /  1.2 °C 30.31in /  1026.3hPa South 1.5mph /  2.4km/h 6mph /  9.7km/h 55% 0.00in /  0mm 341 W/m2
13:19 49.7 °F /  9.8 °C 34.1 °F /  1.2 °C 30.31in /  1026.3hPa SSE 0.8mph /  1.3km/h 6mph /  9.7km/h 54.7% 0.00in /  0mm 283 W/m2
13:24 49.7 °F /  9.8 °C 34.4 °F /  1.3 °C 30.31in /  1026.3hPa South 0.5mph /  0.8km/h 6mph /  9.7km/h 55.5% 0.00in /  0mm 209 W/m2
13:29 49.8 °F /  9.9 °C 34.3 °F /  1.3 °C 30.31in /  1026.3hPa SSW 0.8mph /  1.3km/h 6mph /  9.7km/h 55% 0.00in /  0mm 195 W/m2
13:34 50 °F /  10 °C 34.6 °F /  1.4 °C 30.31in /  1026.3hPa SW 1mph /  1.6km/h 6mph /  9.7km/h 55.4% 0.00in /  0mm 188 W/m2
13:39 50.1 °F /  10.1 °C 34.6 °F /  1.4 °C 30.30in /  1026hPa SW 0.6mph /  1km/h 4mph /  6.4km/h 55% 0.00in /  0mm 151 W/m2
13:44 50.2 °F /  10.1 °C 34.7 °F /  1.5 °C 30.30in /  1026hPa SW 1.3mph /  2.1km/h 6mph /  9.7km/h 55% 0.00in /  0mm 181 W/m2
13:49 50.4 °F /  10.2 °C 34.8 °F /  1.6 °C 30.30in /  1026hPa SW 1mph /  1.6km/h 6mph /  9.7km/h 55% 0.00in /  0mm 325 W/m2
13:54 50.7 °F /  10.4 °C 35.1 °F /  1.7 °C 30.29in /  1025.6hPa SW 0.6mph /  1km/h 6mph /  9.7km/h 54.8% 0.00in /  0mm 325 W/m2
13:59 51 °F /  10.6 °C 35.3 °F /  1.8 °C 30.29in /  1025.6hPa SSW 0.6mph /  1km/h 6mph /  9.7km/h 54.7% 0.00in /  0mm 156 W/m2
14:04 51.2 °F /  10.7 °C 35.6 °F /  2 °C 30.29in /  1025.6hPa SSW 0.3mph /  0.5km/h 6mph /  9.7km/h 55% 0.00in /  0mm 146 W/m2
14:09 51.4 °F /  10.8 °C 35.7 °F /  2.1 °C 30.29in /  1025.6hPa SSW 0.6mph /  1km/h 4mph /  6.4km/h 55% 0.00in /  0mm 142 W/m2
14:14 51.4 °F /  10.8 °C 35.8 °F /  2.1 °C 30.29in /  1025.6hPa SSW 0.4mph /  0.6km/h 4mph /  6.4km/h 55% 0.00in /  0mm 97 W/m2
14:19 51.4 °F /  10.8 °C 36 °F /  2.2 °C 30.28in /  1025.3hPa SSW 0.4mph /  0.6km/h 4mph /  6.4km/h 55.5% 0.00in /  0mm 70 W/m2
14:24 51.3 °F /  10.7 °C 35.8 °F /  2.1 °C 30.29in /  1025.6hPa SW 0.6mph /  1km/h 5mph /  8km/h 55.2% 0.00in /  0mm 70 W/m2
14:29 51.3 °F /  10.7 °C 36 °F /  2.2 °C 30.29in /  1025.6hPa SW 1.6mph /  2.6km/h 9mph /  14.5km/h 55.8% 0.00in /  0mm 62 W/m2
14:34 51.1 °F /  10.6 °C 36.2 °F /  2.3 °C 30.29in /  1025.6hPa SW 0.7mph /  1.1km/h 9mph /  14.5km/h 56.4% 0.00in /  0mm 37 W/m2
14:39 50.9 °F /  10.5 °C 36.2 °F /  2.3 °C 30.28in /  1025.3hPa SW 0.7mph /  1.1km/h 5mph /  8km/h 57% 0.00in /  0mm 42 W/m2
14:44 50.6 °F /  10.3 °C 36.4 °F /  2.4 °C 30.28in /  1025.3hPa SSW 0.7mph /  1.1km/h 5mph /  8km/h 58% 0.00in /  0mm 44 W/m2
14:49 50.5 °F /  10.3 °C 36.7 °F /  2.6 °C 30.28in /  1025.3hPa SSW 0.4mph /  0.6km/h 5mph /  8km/h 59% 0.00in /  0mm 42 W/m2
14:54 50.5 °F /  10.3 °C 36.8 °F /  2.7 °C 30.28in /  1025.3hPa SSW 0.1mph /  0.2km/h 5mph /  8km/h 59.2% 0.00in /  0mm 40 W/m2
14:59 50.5 °F /  10.3 °C 37.1 °F /  2.8 °C 30.28in /  1025.3hPa SSW 0.6mph /  1km/h 5mph /  8km/h 60% 0.00in /  0mm 39 W/m2
15:04 50.4 °F /  10.2 °C 37 °F /  2.8 °C 30.28in /  1025.3hPa SSW 0.3mph /  0.5km/h 5mph /  8km/h 60% 0.00in /  0mm 35 W/m2
15:09 50.3 °F /  10.2 °C 37.2 °F /  2.9 °C 30.28in /  1025.3hPa SSW 0.1mph /  0.2km/h 3mph /  4.8km/h 60.6% 0.00in /  0mm 32 W/m2
15:14 50.1 °F /  10.1 °C 37.2 °F /  2.9 °C 30.28in /  1025.3hPa SSW 0.2mph /  0.3km/h 3mph /  4.8km/h 61% 0.00in /  0mm 30 W/m2
15:19 50 °F /  10 °C 37.5 °F /  3.1 °C 30.28in /  1025.3hPa SSW 0.2mph /  0.3km/h 3mph /  4.8km/h 61.9% 0.00in /  0mm 32 W/m2
15:24 49.9 °F /  9.9 °C 37.4 °F /  3 °C 30.27in /  1024.9hPa SSW 0.6mph /  1km/h 3mph /  4.8km/h 62% 0.00in /  0mm 28 W/m2
15:29 49.8 °F /  9.9 °C 37.4 °F /  3 °C 30.27in /  1024.9hPa SSW 0.1mph /  0.2km/h 3mph /  4.8km/h 62% 0.00in /  0mm 26 W/m2
15:34 49.7 °F /  9.8 °C 37.2 °F /  2.9 °C 30.27in /  1024.9hPa SSW 0.6mph /  1km/h 5mph /  8km/h 62% 0.00in /  0mm 26 W/m2
15:39 49.5 °F /  9.7 °C 37.5 °F /  3.1 °C 30.26in /  1024.6hPa SSW 0.1mph /  0.2km/h 5mph /  8km/h 63% 0.00in /  0mm 28 W/m2
15:44 49.4 °F /  9.7 °C 37.3 °F /  2.9 °C 30.26in /  1024.6hPa SSW 0.4mph /  0.6km/h 5mph /  8km/h 63% 0.00in /  0mm 28 W/m2
15:49 49.3 °F /  9.6 °C 37.4 °F /  3 °C 30.26in /  1024.6hPa SSW 0.1mph /  0.2km/h 5mph /  8km/h 63.4% 0.00in /  0mm 26 W/m2
15:54 49.2 °F /  9.6 °C 37.6 °F /  3.1 °C 30.26in /  1024.6hPa SSW 0.1mph /  0.2km/h 5mph /  8km/h 64% 0.00in /  0mm 23 W/m2
15:59 49.2 °F /  9.6 °C 37.7 °F /  3.2 °C 30.26in /  1024.6hPa Calm   5mph /  8km/h 64.3% 0.00in /  0mm 19 W/m2
16:00 49.2 °F /  9.6 °C 38 °F /  3.3 °C 30.25in /  1024.3hPa Calm   5mph /  8km/h 65% 0.00in /  0mm 14 W/m2
16:09 49 °F /  9.4 °C 37.4 °F /  3 °C 30.25in /  1024.3hPa Calm     64% 0.00in /  0mm 11 W/m2
16:14 48.9 °F /  9.4 °C 37.7 °F /  3.2 °C 30.25in /  1024.3hPa Calm     65% 0.00in /  0mm 9 W/m2
16:19 48.8 °F /  9.3 °C 37.5 °F /  3.1 °C 30.25in /  1024.3hPa SSW 0.1mph /  0.2km/h 1mph /  1.6km/h 65% 0.00in /  0mm 7 W/m2
16:24 48.6 °F /  9.2 °C 37.4 °F /  3 °C 30.25in /  1024.3hPa Calm   1mph /  1.6km/h 65% 0.00in /  0mm 0 W/m2
16:29 48.5 °F /  9.2 °C 37.2 °F /  2.9 °C 30.24in /  1023.9hPa Calm   1mph /  1.6km/h 65% 0.00in /  0mm 0 W/m2
16:34 48.3 °F /  9.1 °C 37.1 °F /  2.8 °C 30.24in /  1023.9hPa Calm   1mph /  1.6km/h 65.2% 0.00in /  0mm 0 W/m2
16:39 48 °F /  8.9 °C 37.2 °F /  2.9 °C 30.25in /  1024.3hPa Calm     66% 0.00in /  0mm 0 W/m2
16:44 47.8 °F /  8.8 °C 37.2 °F /  2.9 °C 30.25in /  1024.3hPa Calm   1mph /  1.6km/h 66.3% 0.00in /  0mm 0 W/m2
16:49 47.7 °F /  8.7 °C 37.3 °F /  2.9 °C 30.24in /  1023.9hPa Calm   1mph /  1.6km/h 67% 0.00in /  0mm 0 W/m2
16:54 47.6 °F /  8.7 °C 37.5 °F /  3.1 °C 30.24in /  1023.9hPa Calm   1mph /  1.6km/h 67.9% 0.00in /  0mm 0 W/m2
16:59 47.4 °F /  8.6 °C 37.6 °F /  3.1 °C 30.24in /  1023.9hPa Calm   1mph /  1.6km/h 68.4% 0.00in /  0mm 0 W/m2
17:04 47.3 °F /  8.5 °C 37.6 °F /  3.1 °C 30.24in /  1023.9hPa Calm   1mph /  1.6km/h 69% 0.00in /  0mm 0 W/m2
17:09 47.1 °F /  8.4 °C 37.8 °F /  3.2 °C 30.24in /  1023.9hPa Calm   1mph /  1.6km/h 69.8% 0.00in /  0mm 0 W/m2
17:14 47 °F /  8.3 °C 37.8 °F /  3.2 °C 30.24in /  1023.9hPa Calm   1mph /  1.6km/h 70.3% 0.00in /  0mm 0 W/m2
17:16 46.9 °F /  8.3 °C 38 °F /  3.3 °C 30.23in /  1023.6hPa Calm   1mph /  1.6km/h 71% 0.00in /  0mm 0 W/m2
17:30 46.5 °F /  8.1 °C 38.3 °F /  3.5 °C 30.23in /  1023.6hPa Calm   1mph /  1.6km/h 73% 0.00in /  0mm 0 W/m2
18:00 45.6 °F /  7.6 °C 38.5 °F /  3.6 °C 30.24in /  1023.9hPa Calm   2mph /  3.2km/h 76% 0.00in /  0mm 0 W/m2
18:34 44.8 °F /  7.1 °C 38.3 °F /  3.5 °C 30.24in /  1023.9hPa Calm   2mph /  3.2km/h 77.8% 0.00in /  0mm 0 W/m2
18:39 44.6 °F /  7 °C 38.4 °F /  3.6 °C 30.23in /  1023.6hPa Calm     78.6% 0.00in /  0mm 0 W/m2
18:44 44.5 °F /  6.9 °C 38.4 °F /  3.6 °C 30.23in /  1023.6hPa Calm     79% 0.00in /  0mm 0 W/m2
18:49 44.5 °F /  6.9 °C 38.4 °F /  3.6 °C 30.23in /  1023.6hPa Calm     79% 0.00in /  0mm 0 W/m2
18:54 44.3 °F /  6.8 °C 38.3 °F /  3.5 °C 30.23in /  1023.6hPa Calm     79% 0.00in /  0mm 0 W/m2
18:59 44.3 °F /  6.8 °C 38.2 °F /  3.4 °C 30.22in /  1023.2hPa Calm     79% 0.00in /  0mm 0 W/m2
19:04 44.2 °F /  6.8 °C 38.4 °F /  3.6 °C 30.23in /  1023.6hPa Calm     80% 0.00in /  0mm 0 W/m2
19:09 44.1 °F /  6.7 °C 38.4 °F /  3.6 °C 30.23in /  1023.6hPa Calm     80% 0.00in /  0mm 0 W/m2
19:14 44.1 °F /  6.7 °C 38.3 °F /  3.5 °C 30.23in /  1023.6hPa Calm     80% 0.00in /  0mm 0 W/m2
19:19 44 °F /  6.7 °C 38.2 °F /  3.4 °C 30.23in /  1023.6hPa Calm     80% 0.00in /  0mm 0 W/m2
19:24 43.8 °F /  6.6 °C 38.1 °F /  3.4 °C 30.23in /  1023.6hPa Calm     80% 0.00in /  0mm 0 W/m2
19:29 43.7 °F /  6.5 °C 38.2 °F /  3.4 °C 30.23in /  1023.6hPa Calm     80.7% 0.00in /  0mm 0 W/m2
19:34 43.6 °F /  6.4 °C 38.2 °F /  3.4 °C 30.22in /  1023.2hPa Calm     81% 0.00in /  0mm 0 W/m2
19:39 43.5 °F /  6.4 °C 38.1 °F /  3.4 °C 30.22in /  1023.2hPa Calm     81% 0.00in /  0mm 0 W/m2
19:44 43.4 °F /  6.3 °C 38 °F /  3.3 °C 30.22in /  1023.2hPa Calm     81.1% 0.00in /  0mm 0 W/m2
19:49 43.3 °F /  6.3 °C 38.2 °F /  3.4 °C 30.21in /  1022.9hPa Calm     82% 0.00in /  0mm 0 W/m2
19:54 43.3 °F /  6.3 °C 38.2 °F /  3.4 °C 30.21in /  1022.9hPa Calm     82% 0.00in /  0mm 0 W/m2
19:59 43.2 °F /  6.2 °C 38.1 °F /  3.4 °C 30.21in /  1022.9hPa Calm     82% 0.00in /  0mm 0 W/m2
20:00 43.1 °F /  6.2 °C 38 °F /  3.3 °C 30.21in /  1022.9hPa Calm     82% 0.00in /  0mm 0 W/m2
20:09 42.9 °F /  6.1 °C 37.8 °F /  3.2 °C 30.20in /  1022.6hPa Calm     82% 0.00in /  0mm 0 W/m2
20:14 42.7 °F /  5.9 °C 37.6 °F /  3.1 °C 30.20in /  1022.6hPa Calm     82% 0.00in /  0mm 0 W/m2
20:19 42.4 °F /  5.8 °C 37.3 °F /  2.9 °C 30.20in /  1022.6hPa Calm     82% 0.00in /  0mm 0 W/m2
20:24 42.2 °F /  5.7 °C 37.1 °F /  2.8 °C 30.20in /  1022.6hPa Calm     82% 0.00in /  0mm 0 W/m2
20:29 41.9 °F /  5.5 °C 36.8 °F /  2.7 °C 30.20in /  1022.6hPa Calm     82% 0.00in /  0mm 0 W/m2
20:34 41.6 °F /  5.3 °C 36.5 °F /  2.5 °C 30.20in /  1022.6hPa Calm     82% 0.00in /  0mm 0 W/m2
20:39 41.4 °F /  5.2 °C 36.3 °F /  2.4 °C 30.20in /  1022.6hPa Calm     82.2% 0.00in /  0mm 0 W/m2
20:44 41.2 °F /  5.1 °C 36.4 °F /  2.4 °C 30.20in /  1022.6hPa Calm     83% 0.00in /  0mm 0 W/m2
20:49 41.1 °F /  5.1 °C 36.6 °F /  2.6 °C 30.20in /  1022.6hPa Calm     84% 0.00in /  0mm 0 W/m2
20:54 41 °F /  5 °C 36.8 °F /  2.7 °C 30.20in /  1022.6hPa Calm     85% 0.00in /  0mm 0 W/m2
20:59 41 °F /  5 °C 36.9 °F /  2.7 °C 30.20in /  1022.6hPa Calm     85.2% 0.00in /  0mm 0 W/m2
21:04 41 °F /  5 °C 37.4 °F /  3 °C 30.20in /  1022.6hPa Calm     86.8% 0.00in /  0mm 0 W/m2
21:09 41 °F /  5 °C 37.4 °F /  3 °C 30.20in /  1022.6hPa Calm     86.9% 0.00in /  0mm 0 W/m2
21:14 40.9 °F /  4.9 °C 37 °F /  2.8 °C 30.20in /  1022.6hPa Calm     86% 0.00in /  0mm 0 W/m2
21:19 40.9 °F /  4.9 °C 37.2 °F /  2.9 °C 30.20in /  1022.6hPa Calm     86.7% 0.00in /  0mm 0 W/m2
21:24 40.8 °F /  4.9 °C 37 °F /  2.8 °C 30.20in /  1022.6hPa Calm     86.3% 0.00in /  0mm 0 W/m2
21:29 40.7 °F /  4.8 °C 37.2 °F /  2.9 °C 30.20in /  1022.6hPa Calm     87% 0.00in /  0mm 0 W/m2
21:34 40.6 °F /  4.8 °C 37.1 °F /  2.8 °C 30.21in /  1022.9hPa Calm     87% 0.00in /  0mm 0 W/m2
21:39 40.5 °F /  4.7 °C 37 °F /  2.8 °C 30.21in /  1022.9hPa Calm     87% 0.00in /  0mm 0 W/m2
21:44 40.5 °F /  4.7 °C 37 °F /  2.8 °C 30.20in /  1022.6hPa Calm     87.2% 0.00in /  0mm 0 W/m2
21:49 40.6 °F /  4.8 °C 37.4 °F /  3 °C 30.20in /  1022.6hPa Calm     88% 0.00in /  0mm 0 W/m2
21:54 40.8 °F /  4.9 °C 37.6 °F /  3.1 °C 30.19in /  1022.2hPa Calm     88.2% 0.00in /  0mm 0 W/m2
21:59 40.9 °F /  4.9 °C 37.8 °F /  3.2 °C 30.19in /  1022.2hPa Calm     88.6% 0.00in /  0mm 0 W/m2
22:04 41 °F /  5 °C 37.9 °F /  3.3 °C 30.19in /  1022.2hPa Calm     88.8% 0.00in /  0mm 0 W/m2
22:09 41 °F /  5 °C 37.7 °F /  3.2 °C 30.18in /  1021.9hPa Calm     88% 0.00in /  0mm 0 W/m2
22:14 40.9 °F /  4.9 °C 37.6 °F /  3.1 °C 30.18in /  1021.9hPa Calm     88% 0.00in /  0mm 0 W/m2
22:19 40.9 °F /  4.9 °C 37.7 °F /  3.2 °C 30.18in /  1021.9hPa Calm     88.2% 0.00in /  0mm 0 W/m2
22:24 40.9 °F /  4.9 °C 37.8 °F /  3.2 °C 30.18in /  1021.9hPa Calm     88.7% 0.00in /  0mm 0 W/m2
22:29 41.1 °F /  5.1 °C 38.1 °F /  3.4 °C 30.18in /  1021.9hPa Calm     89% 0.00in /  0mm 0 W/m2
22:34 41.5 °F /  5.3 °C 38.7 °F /  3.7 °C 30.17in /  1021.6hPa Calm     89.8% 0.00in /  0mm 0 W/m2
22:39 41.8 °F /  5.4 °C 39.1 °F /  3.9 °C 30.17in /  1021.6hPa Calm     90% 0.00in /  0mm 0 W/m2
22:44 42 °F /  5.6 °C 39.1 °F /  3.9 °C 30.16in /  1021.2hPa Calm     89.3% 0.00in /  0mm 0 W/m2
22:49 42 °F /  5.6 °C 39 °F /  3.9 °C 30.15in /  1020.9hPa Calm     89% 0.00in /  0mm 0 W/m2
22:54 42.1 °F /  5.6 °C 39.1 °F /  3.9 °C 30.15in /  1020.9hPa Calm     89% 0.00in /  0mm 0 W/m2
22:59 42 °F /  5.6 °C 39 °F /  3.9 °C 30.15in /  1020.9hPa Calm     88.9% 0.00in /  0mm 0 W/m2
23:00 42 °F /  5.6 °C 38.7 °F /  3.7 °C 30.15in /  1020.9hPa Calm     88% 0.00in /  0mm 0 W/m2
23:09 41.6 °F /  5.3 °C 38.3 °F /  3.5 °C 30.15in /  1020.9hPa Calm     88% 0.00in /  0mm 0 W/m2
23:14 41.4 °F /  5.2 °C 38.1 °F /  3.4 °C 30.15in /  1020.9hPa Calm     88% 0.00in /  0mm 0 W/m2
23:19 41.3 °F /  5.2 °C 38.3 °F /  3.5 °C 30.14in /  1020.5hPa Calm     89% 0.00in /  0mm 0 W/m2
23:24 41.3 °F /  5.2 °C 38.3 °F /  3.5 °C 30.14in /  1020.5hPa Calm     89% 0.00in /  0mm 0 W/m2
23:29 41.2 °F /  5.1 °C 38.3 °F /  3.5 °C 30.13in /  1020.2hPa Calm     89% 0.00in /  0mm 0 W/m2
23:34 41.3 °F /  5.2 °C 38.4 °F /  3.6 °C 30.14in /  1020.5hPa Calm     89.6% 0.00in /  0mm 0 W/m2
23:39 41.3 °F /  5.2 °C 38.6 °F /  3.7 °C 30.13in /  1020.2hPa Calm     90% 0.00in /  0mm 0 W/m2
23:44 41.2 °F /  5.1 °C 38.5 °F /  3.6 °C 30.13in /  1020.2hPa Calm     90% 0.00in /  0mm 0 W/m2
23:49 41.2 °F /  5.1 °C 38.5 °F /  3.6 °C 30.13in /  1020.2hPa Calm     90% 0.00in /  0mm 0 W/m2
23:54 41.1 °F /  5.1 °C 38.4 °F /  3.6 °C 30.13in /  1020.2hPa Calm     90% 0.00in /  0mm 0 W/m2
23:59 41.1 °F /  5.1 °C 38.4 °F /  3.6 °C 30.13in /  1020.2hPa Calm     90% 0.00in /  0mm 0 W/m2
Hartford County Weather
Compliments of Weather Underground - 4 mb